createdAt,value
2022-10-21T00:01:07.211Z,14.36
2022-10-21T00:05:10.623Z,14.31
2022-10-21T00:09:13.791Z,14.26
2022-10-21T00:13:16.985Z,14.25
2022-10-21T00:17:21.273Z,14.20
2022-10-21T00:21:24.536Z,14.19
2022-10-21T00:25:27.485Z,14.16
2022-10-21T00:29:30.524Z,14.08
2022-10-21T00:33:34.965Z,13.97
2022-10-21T00:37:38.086Z,13.92
2022-10-21T00:41:41.301Z,13.91
2022-10-21T00:45:45.759Z,13.83
2022-10-21T00:49:59.544Z,13.80
2022-10-21T00:54:03.836Z,13.67
2022-10-21T00:58:07.217Z,13.65
2022-10-21T01:02:10.196Z,13.65
2022-10-21T01:06:16.746Z,13.58
2022-10-21T01:10:20.495Z,13.51
2022-10-21T01:14:47.692Z,13.45
2022-10-21T01:18:58.676Z,13.38
2022-10-21T01:23:28.845Z,13.34
2022-10-21T01:27:43.431Z,13.24
2022-10-21T01:31:53.616Z,13.13
2022-10-21T01:36:01.476Z,13.14
2022-10-21T01:40:09.009Z,13.01
2022-10-21T01:44:22.302Z,12.74
2022-10-21T01:48:31.950Z,12.74
2022-10-21T01:52:35.710Z,12.76
2022-10-21T01:56:41.681Z,12.83
2022-10-21T02:00:46.096Z,12.75
2022-10-21T02:04:52.442Z,12.89
2022-10-21T02:08:55.550Z,12.86
2022-10-21T02:13:01.495Z,12.90
2022-10-21T02:17:06.080Z,12.91
2022-10-21T02:21:15.570Z,12.95
2022-10-21T02:25:22.807Z,13.01
2022-10-21T02:29:33.067Z,13.00
2022-10-21T02:33:48.358Z,13.09
2022-10-21T02:38:01.139Z,13.02
2022-10-21T02:42:08.494Z,13.00
2022-10-21T02:46:13.299Z,12.90
2022-10-21T02:50:16.368Z,12.67
2022-10-21T02:54:21.046Z,12.55
2022-10-21T02:58:24.058Z,12.46
2022-10-21T03:02:27.194Z,12.33
2022-10-21T03:06:33.033Z,12.34
2022-10-21T03:10:37.733Z,12.17
2022-10-21T03:14:40.718Z,12.11
2022-10-21T03:18:43.699Z,11.81
2022-10-21T03:22:46.722Z,11.66
2022-10-21T03:26:51.023Z,11.51
2022-10-21T03:30:55.561Z,11.49
2022-10-21T03:34:58.610Z,11.72
2022-10-21T03:39:01.630Z,11.62
2022-10-21T03:43:06.051Z,12.14
2022-10-21T03:47:09.191Z,12.26
2022-10-21T03:51:12.328Z,12.61
2022-10-21T03:55:17.301Z,12.63
2022-10-21T03:59:21.666Z,12.67
2022-10-21T04:03:24.655Z,12.70
2022-10-21T04:07:27.654Z,12.68
2022-10-21T04:11:30.649Z,12.69
2022-10-21T04:15:35.046Z,12.61
2022-10-21T04:19:40.862Z,12.61
2022-10-21T04:23:44.249Z,12.63
2022-10-21T04:27:47.200Z,12.70
2022-10-21T04:31:51.598Z,12.58
2022-10-21T04:35:55.287Z,12.58
2022-10-21T04:39:58.279Z,12.56
2022-10-21T04:44:02.466Z,12.54
2022-10-21T04:48:07.584Z,12.40
2022-10-21T04:52:10.656Z,12.45
2022-10-21T04:56:14.182Z,12.34
2022-10-21T05:00:17.235Z,12.28
2022-10-21T05:04:21.627Z,12.30
2022-10-21T05:08:24.583Z,12.31
2022-10-21T05:12:27.783Z,12.36
2022-10-21T05:16:30.780Z,12.37
2022-10-21T05:20:35.195Z,12.44
2022-10-21T05:25:15.322Z,12.53
2022-10-21T05:29:55.777Z,12.45
2022-10-21T05:34:36.205Z,12.65
2022-10-21T05:39:17.803Z,12.59
2022-10-21T05:43:57.878Z,12.45
2022-10-21T05:48:38.258Z,12.39
2022-10-21T05:53:18.627Z,12.52
2022-10-21T05:58:00.175Z,12.67
2022-10-21T06:02:40.744Z,12.62
2022-10-21T06:07:21.307Z,12.55
2022-10-21T06:12:01.738Z,12.50
2022-10-21T06:16:43.336Z,12.51
2022-10-21T06:21:23.588Z,12.62
2022-10-21T06:26:06.215Z,12.73
2022-10-21T06:30:47.998Z,12.77
2022-10-21T06:35:29.739Z,12.74
2022-10-21T06:40:11.128Z,12.81
2022-10-21T06:44:51.389Z,12.81
2022-10-21T06:49:31.992Z,12.89
2022-10-21T06:54:13.481Z,12.89
2022-10-21T06:58:54.340Z,12.92
2022-10-21T07:03:34.587Z,12.95
2022-10-21T07:08:15.273Z,12.92
2022-10-21T07:12:57.773Z,12.98
2022-10-21T07:17:38.253Z,13.09
2022-10-21T07:22:18.967Z,12.99
2022-10-21T07:26:59.300Z,13.08
2022-10-21T07:31:41.374Z,13.09
2022-10-21T07:36:24.797Z,13.16
2022-10-21T07:41:05.932Z,13.24
2022-10-21T07:45:46.334Z,13.32
2022-10-21T07:50:28.036Z,13.45
2022-10-21T07:55:08.697Z,13.52
2022-10-21T07:59:49.017Z,13.66
2022-10-21T08:04:33.337Z,13.70
2022-10-21T08:09:16.173Z,13.69
2022-10-21T08:13:57.391Z,13.75
2022-10-21T08:18:37.755Z,13.84
2022-10-21T08:23:21.532Z,13.92
2022-10-21T08:28:03.057Z,13.91
2022-10-21T08:32:43.520Z,14.04
2022-10-21T08:37:25.682Z,14.17
2022-10-21T08:42:12.015Z,14.22
2022-10-21T08:46:59.117Z,14.40
2022-10-21T08:51:44.128Z,14.55
2022-10-21T08:56:26.079Z,14.66
2022-10-21T09:01:19.876Z,14.78
2022-10-21T09:06:15.067Z,14.87
2022-10-21T09:11:03.430Z,14.99
2022-10-21T09:15:55.941Z,15.11
2022-10-21T09:20:48.114Z,15.07
2022-10-21T09:25:34.894Z,15.00
2022-10-21T09:30:17.559Z,15.13
2022-10-21T09:35:04.041Z,15.18
2022-10-21T09:39:49.403Z,15.18
2022-10-21T09:44:31.044Z,15.22
2022-10-21T09:49:54.001Z,15.29
2022-10-21T09:54:24.492Z,15.41
2022-10-21T09:59:08.509Z,15.51
2022-10-21T10:03:52.254Z,15.64
2022-10-21T10:08:36.488Z,15.87
2022-10-21T10:13:19.731Z,16.03
2022-10-21T10:18:01.681Z,16.11
2022-10-21T10:22:45.805Z,16.10
2022-10-21T10:27:26.692Z,16.30
2022-10-21T10:32:15.590Z,16.45
2022-10-21T10:37:04.144Z,16.70
2022-10-21T10:41:50.822Z,16.95
2022-10-21T10:46:33.934Z,17.12
2022-10-21T10:51:27.557Z,17.41
2022-10-21T10:56:22.588Z,17.84
2022-10-21T11:01:09.606Z,18.05
2022-10-21T11:05:53.090Z,18.29
2022-10-21T11:10:36.346Z,18.59
2022-10-21T11:15:16.839Z,18.74
2022-10-21T11:20:07.342Z,18.45
2022-10-21T11:24:56.750Z,18.96
2022-10-21T11:29:45.792Z,20.19
2022-10-21T11:34:35.127Z,20.78
2022-10-21T11:39:44.790Z,20.22
2022-10-21T11:44:38.071Z,21.83
2022-10-21T11:49:33.097Z,22.28
2022-10-21T11:54:58.281Z,21.14
2022-10-21T12:00:03.230Z,21.39
2022-10-21T12:04:52.186Z,20.82
2022-10-21T12:09:38.679Z,21.73
2022-10-21T12:14:31.022Z,21.17
2022-10-21T12:19:15.340Z,20.92
2022-10-21T12:24:05.311Z,21.19
2022-10-21T12:28:56.200Z,20.91
2022-10-21T12:33:40.974Z,20.77
2022-10-21T12:38:25.283Z,20.24
2022-10-21T12:43:16.048Z,20.52
2022-10-21T12:47:58.066Z,20.74
2022-10-21T12:52:41.353Z,21.62
2022-10-21T12:57:28.769Z,23.89
2022-10-21T13:02:28.973Z,24.16
2022-10-21T13:07:33.142Z,21.75
2022-10-21T13:12:31.124Z,21.25
2022-10-21T13:17:30.112Z,20.90
2022-10-21T13:22:12.827Z,21.01
2022-10-21T13:26:55.868Z,23.04
2022-10-21T13:31:37.560Z,23.88
2022-10-21T13:36:17.932Z,23.10
2022-10-21T13:41:00.768Z,23.41
2022-10-21T13:45:47.457Z,24.28
2022-10-21T13:50:32.281Z,24.10
2022-10-21T13:55:21.601Z,23.64
2022-10-21T14:00:03.323Z,22.94
2022-10-21T14:04:43.400Z,22.63
2022-10-21T14:09:28.852Z,22.97
2022-10-21T14:14:12.051Z,23.15
2022-10-21T14:18:54.406Z,22.56
2022-10-21T14:23:35.423Z,22.07
2022-10-21T14:28:18.992Z,22.22
2022-10-21T14:33:03.198Z,22.34
2022-10-21T14:37:45.244Z,22.55
2022-10-21T14:42:26.458Z,22.51
2022-10-21T14:47:07.917Z,22.65
2022-10-21T14:51:48.081Z,21.83
2022-10-21T14:56:33.978Z,21.27
2022-10-21T15:01:18.371Z,21.47
2022-10-21T15:06:12.510Z,22.19
2022-10-21T15:11:23.415Z,22.33
2022-10-21T15:16:06.064Z,22.40
2022-10-21T15:20:58.363Z,22.72
2022-10-21T15:25:40.067Z,21.67
2022-10-21T15:30:22.901Z,21.11
2022-10-21T15:35:03.420Z,20.82
2022-10-21T15:39:45.517Z,20.39
2022-10-21T15:44:29.482Z,20.11
2022-10-21T15:49:17.370Z,19.91
2022-10-21T15:53:58.152Z,19.63
2022-10-21T15:58:38.260Z,19.33
2022-10-21T16:03:20.045Z,19.20
2022-10-21T16:08:01.173Z,18.92
2022-10-21T16:12:41.524Z,18.71
2022-10-21T16:17:23.790Z,18.53
2022-10-21T16:22:10.709Z,18.38
2022-10-21T16:26:51.207Z,18.24
2022-10-21T16:31:31.768Z,18.13
2022-10-21T16:36:16.375Z,18.01
2022-10-21T16:40:57.933Z,17.89
2022-10-21T16:45:38.350Z,17.78
2022-10-21T16:50:21.811Z,17.71
2022-10-21T16:55:01.968Z,17.61
2022-10-21T16:59:43.177Z,17.47
2022-10-21T17:04:23.360Z,17.48
2022-10-21T17:09:03.664Z,17.42
2022-10-21T17:13:44.941Z,17.38
2022-10-21T17:18:26.394Z,17.39
2022-10-21T17:23:06.823Z,17.24
2022-10-21T17:27:47.124Z,17.19
2022-10-21T17:32:27.481Z,17.16
2022-10-21T17:37:09.897Z,17.16
2022-10-21T17:41:51.004Z,17.15
2022-10-21T17:46:31.403Z,17.11
2022-10-21T17:51:11.299Z,16.96
2022-10-21T17:56:00.142Z,16.83
2022-10-21T18:00:43.807Z,16.77
2022-10-21T18:05:24.752Z,16.66
2022-10-21T18:10:06.462Z,16.59
2022-10-21T18:14:48.399Z,16.57
2022-10-21T18:19:29.525Z,16.59
2022-10-21T18:24:12.653Z,16.54
2022-10-21T18:28:54.581Z,16.69
2022-10-21T18:33:36.621Z,16.70
2022-10-21T18:38:16.806Z,16.68
2022-10-21T18:42:57.273Z,16.67
2022-10-21T18:47:38.419Z,16.48
2022-10-21T18:52:20.290Z,16.52
2022-10-21T18:57:00.387Z,16.44
2022-10-21T19:01:41.502Z,16.31
2022-10-21T19:06:32.206Z,16.41
2022-10-21T19:11:13.789Z,16.19
2022-10-21T19:15:53.705Z,16.01
2022-10-21T19:20:34.064Z,15.95
2022-10-21T19:25:14.535Z,15.91
2022-10-21T19:29:56.015Z,15.75
2022-10-21T19:34:36.037Z,15.78
2022-10-21T19:39:16.864Z,15.73
2022-10-21T19:43:59.150Z,15.82
2022-10-21T19:48:40.621Z,15.79
2022-10-21T19:53:20.726Z,15.69
2022-10-21T19:58:00.936Z,15.60
2022-10-21T20:02:41.809Z,15.57
2022-10-21T20:07:23.751Z,15.45
2022-10-21T20:12:03.752Z,15.57
2022-10-21T20:16:44.186Z,15.54
2022-10-21T20:21:25.323Z,15.57
2022-10-21T20:26:07.654Z,15.51
2022-10-21T20:30:57.150Z,15.49
2022-10-21T20:35:41.099Z,15.53
2022-10-21T20:40:21.415Z,15.52
2022-10-21T20:45:02.957Z,15.47
2022-10-21T20:49:43.430Z,15.39
2022-10-21T20:54:24.985Z,15.37
2022-10-21T20:59:06.614Z,15.01
2022-10-21T21:03:50.379Z,14.34
2022-10-21T21:08:31.016Z,13.83
2022-10-21T21:13:11.209Z,13.63
2022-10-21T21:17:51.834Z,13.79
2022-10-21T21:22:36.511Z,13.81
2022-10-21T21:27:17.138Z,13.73
2022-10-21T21:31:57.538Z,13.67
2022-10-21T21:36:38.069Z,13.69
2022-10-21T21:41:19.660Z,13.62
2022-10-21T21:46:00.774Z,13.58
2022-10-21T21:50:41.643Z,13.62
2022-10-21T21:55:21.971Z,13.62
2022-10-21T22:00:03.911Z,13.48
2022-10-21T22:04:45.788Z,13.45
2022-10-21T22:09:25.902Z,13.40
2022-10-21T22:14:06.103Z,13.30
2022-10-21T22:18:47.668Z,13.33
2022-10-21T22:23:28.249Z,13.15
2022-10-21T22:28:08.257Z,12.88
2022-10-21T22:32:48.818Z,12.71
2022-10-21T22:37:30.566Z,12.65
2022-10-21T22:42:10.857Z,12.49
2022-10-21T22:46:50.945Z,12.72
2022-10-21T22:51:31.490Z,12.86
2022-10-21T22:56:12.959Z,12.90
2022-10-21T23:00:53.254Z,13.02
2022-10-21T23:05:33.520Z,13.20
2022-10-21T23:10:13.953Z,13.26
2022-10-21T23:14:55.481Z,13.19
2022-10-21T23:19:35.734Z,13.12
2022-10-21T23:24:16.295Z,12.96
2022-10-21T23:28:56.478Z,12.95
2022-10-21T23:33:38.121Z,12.83
2022-10-21T23:38:18.431Z,12.73
2022-10-21T23:42:58.646Z,12.81
2022-10-21T23:47:39.866Z,12.79
2022-10-21T23:52:21.923Z,12.72
2022-10-21T23:57:02.176Z,12.74
